createdAt,value
2022-10-15T00:01:38.175Z,95314.78
2022-10-15T00:04:04.970Z,95321.44
2022-10-15T00:06:31.872Z,95318.66
2022-10-15T00:08:58.553Z,95305.88
2022-10-15T00:11:28.735Z,95307.31
2022-10-15T00:13:56.901Z,95307.31
2022-10-15T00:16:25.233Z,95304.72
2022-10-15T00:18:52.264Z,95307.31
2022-10-15T00:21:19.592Z,95307.31
2022-10-15T00:23:46.470Z,95298.44
2022-10-15T00:26:18.498Z,95301.84
2022-10-15T00:28:45.692Z,95296.50
2022-10-15T00:31:14.038Z,95301.84
2022-10-15T00:33:41.204Z,95299.88
2022-10-15T00:36:10.768Z,95299.88
2022-10-15T00:38:37.554Z,95287.91
2022-10-15T00:41:05.282Z,95295.03
2022-10-15T00:43:36.063Z,95298.59
2022-10-15T00:46:03.269Z,95289.53
2022-10-15T00:48:31.389Z,95282.56
2022-10-15T00:51:01.683Z,95282.56
2022-10-15T00:53:28.409Z,95280.75
2022-10-15T00:55:55.188Z,95279.97
2022-10-15T00:58:28.361Z,95283.34
2022-10-15T01:00:56.079Z,95272.00
2022-10-15T01:03:23.473Z,95272.97
2022-10-15T01:05:51.448Z,95274.59
2022-10-15T01:08:18.444Z,95271.38
2022-10-15T01:10:50.872Z,95281.56
2022-10-15T01:13:42.345Z,95278.97
2022-10-15T01:16:23.993Z,95270.72
2022-10-15T01:18:57.437Z,95274.44
2022-10-15T01:21:44.659Z,95272.00
2022-10-15T01:24:33.910Z,95257.41
2022-10-15T01:27:27.123Z,95275.56
2022-10-15T01:30:12.245Z,95277.34
2022-10-15T01:32:43.612Z,95280.09
2022-10-15T01:35:21.459Z,95278.47
2022-10-15T01:37:59.751Z,95277.66
2022-10-15T01:40:46.444Z,95273.28
2022-10-15T01:43:15.648Z,95275.88
2022-10-15T01:46:11.169Z,95277.81
2022-10-15T01:49:08.946Z,95269.09
2022-10-15T01:51:38.227Z,95271.66
2022-10-15T01:54:07.932Z,95271.66
2022-10-15T01:56:36.983Z,95276.03
2022-10-15T01:59:04.933Z,95275.88
2022-10-15T02:01:31.790Z,95274.09
2022-10-15T02:03:58.692Z,95273.13
2022-10-15T02:06:39.450Z,95272.31
2022-10-15T02:09:30.275Z,95270.69
2022-10-15T02:12:07.166Z,95270.38
2022-10-15T02:14:36.766Z,95276.38
2022-10-15T02:17:06.913Z,95272.16
2022-10-15T02:19:36.868Z,95271.34
2022-10-15T02:22:03.544Z,95269.72
2022-10-15T02:24:35.584Z,95272.31
2022-10-15T02:27:06.714Z,95275.56
2022-10-15T02:29:35.106Z,95276.69
2022-10-15T02:32:03.415Z,95277.00
2022-10-15T02:34:32.889Z,95276.50
2022-10-15T02:37:01.666Z,95284.63
2022-10-15T02:39:28.519Z,95280.41
2022-10-15T02:41:55.429Z,95279.59
2022-10-15T02:44:22.182Z,95279.59
2022-10-15T02:46:49.005Z,95282.03
2022-10-15T02:49:17.817Z,95281.22
2022-10-15T02:51:44.541Z,95275.22
2022-10-15T02:54:16.103Z,95275.38
2022-10-15T02:56:42.833Z,95276.03
2022-10-15T02:59:09.864Z,95277.00
2022-10-15T03:01:36.753Z,95272.78
2022-10-15T03:04:05.188Z,95278.78
2022-10-15T03:06:33.019Z,95279.44
2022-10-15T03:08:59.951Z,95277.00
2022-10-15T03:11:26.873Z,95265.69
2022-10-15T03:13:53.627Z,95272.47
2022-10-15T03:16:21.348Z,95264.72
2022-10-15T03:18:48.118Z,95273.28
2022-10-15T03:21:15.944Z,95273.44
2022-10-15T03:23:43.576Z,95280.41
2022-10-15T03:26:17.170Z,95281.53
2022-10-15T03:28:44.633Z,95281.69
2022-10-15T03:31:15.986Z,95279.41
2022-10-15T03:33:47.331Z,95282.97
2022-10-15T03:36:15.436Z,95279.72
2022-10-15T03:38:42.300Z,95283.28
2022-10-15T03:41:13.146Z,95271.94
2022-10-15T03:43:42.935Z,95282.97
2022-10-15T03:46:10.641Z,95292.53
2022-10-15T03:48:41.856Z,95284.09
2022-10-15T03:51:11.124Z,95288.47
2022-10-15T03:53:39.720Z,95286.84
2022-10-15T03:56:07.038Z,95297.19
2022-10-15T03:58:37.400Z,95294.75
2022-10-15T04:01:11.000Z,95299.13
2022-10-15T04:03:38.499Z,95287.16
2022-10-15T04:06:05.331Z,95297.50
2022-10-15T04:08:32.823Z,95294.75
2022-10-15T04:10:59.846Z,95299.13
2022-10-15T04:13:27.308Z,95297.50
2022-10-15T04:15:55.478Z,95298.50
2022-10-15T04:18:22.600Z,95301.09
2022-10-15T04:20:53.771Z,95306.28
2022-10-15T04:23:22.963Z,95304.66
2022-10-15T04:26:08.303Z,95301.25
2022-10-15T04:28:36.128Z,95298.66
2022-10-15T04:31:03.655Z,95295.25
2022-10-15T04:33:30.853Z,95296.22
2022-10-15T04:36:01.171Z,95299.78
2022-10-15T04:38:44.026Z,95300.75
2022-10-15T04:41:12.259Z,95301.72
2022-10-15T04:44:02.110Z,95310.13
2022-10-15T04:46:31.128Z,95311.09
2022-10-15T04:49:02.093Z,95307.69
2022-10-15T04:51:28.835Z,95317.09
2022-10-15T04:54:18.492Z,95318.56
2022-10-15T04:56:57.781Z,95320.19
2022-10-15T04:59:25.018Z,95316.63
2022-10-15T05:02:10.883Z,95317.25
2022-10-15T05:04:38.306Z,95326.66
2022-10-15T05:07:05.229Z,95325.69
2022-10-15T05:09:35.617Z,95324.56
2022-10-15T05:12:03.728Z,95325.22
2022-10-15T05:14:30.504Z,95330.25
2022-10-15T05:17:11.667Z,95321.53
2022-10-15T05:19:40.756Z,95327.34
2022-10-15T05:22:14.162Z,95334.16
2022-10-15T05:24:47.478Z,95332.22
2022-10-15T05:27:25.340Z,95328.34
2022-10-15T05:29:52.120Z,95340.31
2022-10-15T05:34:45.401Z,95342.75
2022-10-15T05:37:15.269Z,95350.38
2022-10-15T05:39:42.731Z,95355.25
2022-10-15T05:42:10.643Z,95351.69
2022-10-15T05:44:41.071Z,95352.34
2022-10-15T05:47:11.960Z,95362.41
2022-10-15T05:49:39.325Z,95369.53
2022-10-15T05:52:12.948Z,95360.94
2022-10-15T05:55:17.695Z,95362.41
2022-10-15T05:57:44.336Z,95363.06
2022-10-15T06:00:11.286Z,95361.44
2022-10-15T06:02:40.815Z,95361.09
2022-10-15T06:05:07.950Z,95364.34
2022-10-15T06:07:34.692Z,95366.78
2022-10-15T06:10:05.121Z,95367.44
2022-10-15T06:12:33.979Z,95371.34
2022-10-15T06:15:00.743Z,95369.09
2022-10-15T06:17:27.423Z,95361.63
2022-10-15T06:19:54.127Z,95371.38
2022-10-15T06:22:20.916Z,95370.75
2022-10-15T06:24:47.699Z,95369.28
2022-10-15T06:27:14.495Z,95377.41
2022-10-15T06:29:41.332Z,95374.34
2022-10-15T06:32:11.391Z,95380.84
2022-10-15T06:34:42.808Z,95382.31
2022-10-15T06:37:09.489Z,95389.75
2022-10-15T06:39:36.299Z,95390.25
2022-10-15T06:42:03.060Z,95396.75
2022-10-15T06:44:38.423Z,95388.63
2022-10-15T06:47:05.167Z,95390.59
2022-10-15T06:49:32.000Z,95388.16
2022-10-15T06:52:02.609Z,95389.13
2022-10-15T06:54:30.604Z,95392.06
2022-10-15T06:56:57.413Z,95396.91
2022-10-15T06:59:24.213Z,95396.94
2022-10-15T07:01:50.913Z,95395.59
2022-10-15T07:04:17.593Z,95397.88
2022-10-15T07:06:44.284Z,95392.34
2022-10-15T07:09:10.986Z,95399.13
2022-10-15T07:11:37.907Z,95397.84
2022-10-15T07:14:04.633Z,95402.06
2022-10-15T07:16:31.330Z,95408.56
2022-10-15T07:18:58.061Z,95413.22
2022-10-15T07:21:24.765Z,95411.56
2022-10-15T07:23:51.759Z,95407.13
2022-10-15T07:26:18.550Z,95406.50
2022-10-15T07:28:45.408Z,95402.91
2022-10-15T07:31:12.267Z,95408.59
2022-10-15T07:33:39.211Z,95397.22
2022-10-15T07:36:07.931Z,95397.03
2022-10-15T07:38:35.177Z,95410.53
2022-10-15T07:41:03.003Z,95402.41
2022-10-15T07:43:32.351Z,95403.88
2022-10-15T07:45:59.186Z,95406.13
2022-10-15T07:48:25.988Z,95413.56
2022-10-15T07:50:56.495Z,95412.31
2022-10-15T07:53:23.448Z,95406.75
2022-10-15T07:55:58.934Z,95409.41
2022-10-15T07:58:30.566Z,95415.19
2022-10-15T08:01:02.203Z,95408.19
2022-10-15T08:03:30.724Z,95413.47
2022-10-15T08:05:59.798Z,95417.78
2022-10-15T08:08:28.338Z,95413.59
2022-10-15T08:10:55.226Z,95394.66
2022-10-15T08:13:22.848Z,95410.25
2022-10-15T08:15:50.505Z,95408.75
2022-10-15T08:18:17.211Z,95407.53
2022-10-15T08:20:43.950Z,95402.00
2022-10-15T08:23:15.065Z,95402.31
2022-10-15T08:25:42.283Z,95394.06
2022-10-15T08:28:12.292Z,95401.09
2022-10-15T08:30:38.986Z,95394.16
2022-10-15T08:33:12.391Z,95393.63
2022-10-15T08:35:43.741Z,95395.06
2022-10-15T08:38:14.688Z,95395.78
2022-10-15T08:40:52.324Z,95387.56
2022-10-15T08:43:23.640Z,95382.97
2022-10-15T08:45:52.776Z,95381.19
2022-10-15T08:48:23.591Z,95383.28
2022-10-15T08:50:57.396Z,95380.56
2022-10-15T08:53:25.041Z,95382.66
2022-10-15T08:55:55.908Z,95379.16
2022-10-15T08:58:38.212Z,95384.41
2022-10-15T09:01:13.716Z,95381.56
2022-10-15T09:04:00.441Z,95398.38
2022-10-15T09:06:31.084Z,95383.91
2022-10-15T09:09:00.907Z,95379.50
2022-10-15T09:11:46.296Z,95383.31
2022-10-15T09:14:22.674Z,95390.16
2022-10-15T09:16:50.045Z,95382.41
2022-10-15T09:19:18.798Z,95392.84
2022-10-15T09:21:47.312Z,95379.31
2022-10-15T09:24:18.766Z,95379.31
2022-10-15T09:26:45.474Z,95386.59
2022-10-15T09:29:12.114Z,95367.09
2022-10-15T09:31:45.975Z,95374.91
2022-10-15T09:34:27.936Z,95368.88
2022-10-15T09:37:00.879Z,95375.00
2022-10-15T09:39:35.752Z,95376.25
2022-10-15T09:42:21.526Z,95372.88
2022-10-15T09:44:48.720Z,95368.28
2022-10-15T09:47:26.769Z,95368.72
2022-10-15T09:50:00.365Z,95371.53
2022-10-15T09:52:45.600Z,95364.53
2022-10-15T09:55:12.397Z,95366.16
2022-10-15T09:57:40.429Z,95360.34
2022-10-15T10:00:10.782Z,95372.41
2022-10-15T10:02:40.454Z,95372.81
2022-10-15T10:05:19.457Z,95365.50
2022-10-15T10:07:46.220Z,95372.16
2022-10-15T10:10:30.680Z,95369.13
2022-10-15T10:12:57.522Z,95371.72
2022-10-15T10:15:34.729Z,95371.53
2022-10-15T10:18:01.945Z,95371.53
2022-10-15T10:20:32.842Z,95362.25
2022-10-15T10:23:00.779Z,95362.66
2022-10-15T10:25:27.765Z,95360.38
2022-10-15T10:28:17.991Z,95355.13
2022-10-15T10:30:57.014Z,95354.25
2022-10-15T10:33:27.706Z,95353.84
2022-10-15T10:35:55.223Z,95358.69
2022-10-15T10:38:26.994Z,95352.94
2022-10-15T10:40:59.227Z,95349.09
2022-10-15T10:43:27.709Z,95350.44
2022-10-15T10:45:54.423Z,95353.81
2022-10-15T10:48:41.468Z,95342.00
2022-10-15T10:51:09.340Z,95337.16
2022-10-15T10:53:57.243Z,95334.25
2022-10-15T10:56:44.183Z,95335.97
2022-10-15T10:59:10.842Z,95337.06
2022-10-15T11:01:37.658Z,95329.44
2022-10-15T11:07:09.409Z,95332.75
2022-10-15T11:09:51.131Z,95328.78
2022-10-15T11:12:23.673Z,95332.31
2022-10-15T11:14:53.474Z,95331.00
2022-10-15T11:17:34.002Z,95337.22
2022-10-15T11:23:11.368Z,95330.28
2022-10-15T11:25:50.387Z,95342.31
2022-10-15T11:28:28.485Z,95338.53
2022-10-15T11:31:00.185Z,95339.34
2022-10-15T11:33:30.048Z,95338.53
2022-10-15T11:36:10.113Z,95337.94
2022-10-15T11:38:56.289Z,95333.69
2022-10-15T11:41:22.976Z,95326.75
2022-10-15T11:44:08.497Z,95328.72
2022-10-15T11:46:55.436Z,95327.28
2022-10-15T11:49:29.684Z,95323.66
2022-10-15T11:52:07.581Z,95329.53
2022-10-15T11:54:49.478Z,95323.28
2022-10-15T11:57:19.195Z,95321.41
2022-10-15T11:59:50.125Z,95327.13
2022-10-15T12:02:24.474Z,95326.16
2022-10-15T12:04:56.487Z,95330.81
2022-10-15T12:07:25.966Z,95335.09
2022-10-15T12:09:55.017Z,95322.41
2022-10-15T12:12:42.014Z,95330.44
2022-10-15T12:15:29.415Z,95320.94
2022-10-15T12:18:02.010Z,95332.47
2022-10-15T12:20:29.185Z,95335.31
2022-10-15T12:23:01.245Z,95331.88
2022-10-15T12:25:34.089Z,95336.88
2022-10-15T12:28:02.671Z,95334.72
2022-10-15T12:30:32.510Z,95336.66
2022-10-15T12:32:59.552Z,95333.31
2022-10-15T12:35:33.827Z,95328.84
2022-10-15T12:38:11.245Z,95330.00
2022-10-15T12:40:39.347Z,95324.31
2022-10-15T12:43:13.213Z,95327.09
2022-10-15T12:45:41.406Z,95325.47
2022-10-15T12:48:08.091Z,95329.06
2022-10-15T12:50:35.828Z,95328.88
2022-10-15T12:53:08.193Z,95325.06
2022-10-15T12:55:40.971Z,95332.78
2022-10-15T12:58:25.974Z,95329.16
2022-10-15T13:00:52.693Z,95325.25
2022-10-15T13:03:31.716Z,95326.75
2022-10-15T13:06:13.795Z,95319.94
2022-10-15T13:08:44.314Z,95320.34
2022-10-15T13:11:19.509Z,95323.41
2022-10-15T13:13:47.211Z,95320.00
2022-10-15T13:16:14.583Z,95317.78
2022-10-15T13:18:41.938Z,95307.88
2022-10-15T13:21:11.352Z,95307.09
2022-10-15T13:23:45.227Z,95305.03
2022-10-15T13:26:14.754Z,95310.25
2022-10-15T13:28:42.425Z,95315.44
2022-10-15T13:31:14.944Z,95303.84
2022-10-15T13:33:42.752Z,95306.28
2022-10-15T13:36:10.201Z,95321.16
2022-10-15T13:38:38.820Z,95323.94
2022-10-15T13:41:05.611Z,95322.25
2022-10-15T13:43:32.368Z,95319.88
2022-10-15T13:46:00.101Z,95317.31
2022-10-15T13:48:28.286Z,95313.31
2022-10-15T13:50:56.566Z,95313.53
2022-10-15T13:53:35.786Z,95306.28
2022-10-15T13:56:22.401Z,95305.25
2022-10-15T13:58:49.186Z,95311.06
2022-10-15T14:01:17.853Z,95320.31
2022-10-15T14:03:50.636Z,95323.84
2022-10-15T14:06:19.029Z,95307.88
2022-10-15T14:08:47.145Z,95307.75
2022-10-15T14:11:14.332Z,95308.91
2022-10-15T14:13:45.619Z,95310.91
2022-10-15T14:16:18.465Z,95312.00
2022-10-15T14:18:49.178Z,95318.03
2022-10-15T14:21:18.521Z,95304.16
2022-10-15T14:23:46.342Z,95316.56
2022-10-15T14:26:14.105Z,95305.22
2022-10-15T14:28:41.737Z,95296.25
2022-10-15T14:31:08.560Z,95297.41
2022-10-15T14:33:35.261Z,95301.84
2022-10-15T14:36:05.595Z,95306.94
2022-10-15T14:38:32.403Z,95303.72
2022-10-15T14:41:06.535Z,95306.56
2022-10-15T14:43:35.831Z,95310.25
2022-10-15T14:46:06.813Z,95309.06
2022-10-15T14:48:35.676Z,95311.13
2022-10-15T14:51:07.218Z,95319.19
2022-10-15T14:53:37.962Z,95324.25
2022-10-15T14:56:09.695Z,95329.06
2022-10-15T14:58:37.879Z,95329.06
2022-10-15T15:01:06.662Z,95334.84
2022-10-15T15:03:44.502Z,95330.47
2022-10-15T15:06:11.206Z,95332.63
2022-10-15T15:08:37.867Z,95341.81
2022-10-15T15:11:06.883Z,95342.38
2022-10-15T15:13:38.849Z,95339.94
2022-10-15T15:16:05.763Z,95344.34
2022-10-15T15:18:32.688Z,95348.78
2022-10-15T15:21:02.101Z,95351.63
2022-10-15T15:23:29.470Z,95357.78
2022-10-15T15:25:57.114Z,95360.19
2022-10-15T15:28:25.157Z,95357.06
2022-10-15T15:30:59.728Z,95354.94
2022-10-15T15:33:28.477Z,95357.31
2022-10-15T15:36:01.299Z,95370.44
2022-10-15T15:38:31.067Z,95375.56
2022-10-15T15:41:18.143Z,95376.47
2022-10-15T15:43:45.106Z,95384.88
2022-10-15T15:46:12.292Z,95389.88
2022-10-15T15:48:39.002Z,95398.38
2022-10-15T15:51:16.883Z,95400.91
2022-10-15T15:53:43.594Z,95404.00
2022-10-15T15:56:10.322Z,95411.53
2022-10-15T15:58:37.025Z,95407.81
2022-10-15T16:01:05.148Z,95411.41
2022-10-15T16:03:31.975Z,95425.78
2022-10-15T16:05:58.711Z,95428.56
2022-10-15T16:08:25.375Z,95439.63
2022-10-15T16:10:52.275Z,95435.31
2022-10-15T16:13:18.920Z,95442.66
2022-10-15T16:15:45.569Z,95438.13
2022-10-15T16:18:12.371Z,95449.19
2022-10-15T16:20:46.318Z,95449.72
2022-10-15T16:23:15.398Z,95452.16
2022-10-15T16:28:09.609Z,95457.56
2022-10-15T16:30:36.517Z,95460.84
2022-10-15T16:33:03.307Z,95456.47
2022-10-15T16:35:30.095Z,95459.13
2022-10-15T16:37:56.782Z,95465.78
2022-10-15T16:40:24.008Z,95472.78
2022-10-15T16:42:50.713Z,95473.25
2022-10-15T16:45:17.429Z,95481.88
2022-10-15T16:47:44.101Z,95475.06
2022-10-15T16:50:11.176Z,95475.38
2022-10-15T16:52:37.912Z,95491.00
2022-10-15T16:55:04.935Z,95497.53
2022-10-15T16:57:31.780Z,95496.88
2022-10-15T16:59:58.839Z,95501.13
2022-10-15T17:02:25.877Z,95507.78
2022-10-15T17:04:53.425Z,95511.34
2022-10-15T17:07:20.146Z,95510.22
2022-10-15T17:12:14.629Z,95520.78
2022-10-15T17:14:41.375Z,95520.94
2022-10-15T17:17:08.099Z,95514.13
2022-10-15T17:19:35.404Z,95517.69
2022-10-15T17:22:02.146Z,95517.19
2022-10-15T17:24:28.872Z,95514.75
2022-10-15T17:26:58.076Z,95515.09
2022-10-15T17:29:27.860Z,95519.31
2022-10-15T17:31:57.604Z,95511.84
2022-10-15T17:34:24.369Z,95514.78
2022-10-15T17:36:52.963Z,95518.34
2022-10-15T17:39:20.568Z,95510.88
2022-10-15T17:41:47.420Z,95509.56
2022-10-15T17:44:14.639Z,95518.66
2022-10-15T17:46:41.843Z,95520.59
2022-10-15T17:49:11.158Z,95520.59
2022-10-15T17:51:39.446Z,95513.44
2022-10-15T17:54:06.427Z,95509.06
2022-10-15T17:56:34.402Z,95513.78
2022-10-15T17:59:02.249Z,95514.13
2022-10-15T18:01:56.157Z,95518.97
2022-10-15T18:04:17.322Z,95519.94
2022-10-15T18:06:45.025Z,95520.75
2022-10-15T18:09:23.231Z,95519.94
2022-10-15T18:11:50.070Z,95525.44
2022-10-15T18:14:16.841Z,95526.03
2022-10-15T18:16:44.111Z,95525.88
2022-10-15T18:19:10.920Z,95530.91
2022-10-15T18:21:37.614Z,95529.28
2022-10-15T18:24:04.332Z,95542.44
2022-10-15T18:26:31.075Z,95531.06
2022-10-15T18:28:57.847Z,95538.72
2022-10-15T18:31:26.341Z,95539.69
2022-10-15T18:33:55.630Z,95549.41
2022-10-15T18:36:23.962Z,95538.38
2022-10-15T18:38:50.686Z,95530.38
2022-10-15T18:41:18.986Z,95529.91
2022-10-15T18:43:52.451Z,95531.34
2022-10-15T18:46:19.288Z,95531.81
2022-10-15T18:48:45.998Z,95537.78
2022-10-15T18:51:13.061Z,95541.53
2022-10-15T18:53:40.210Z,95534.81
2022-10-15T18:56:07.869Z,95537.13
2022-10-15T18:58:34.830Z,95544.97
2022-10-15T19:01:12.196Z,95544.50
2022-10-15T19:03:38.928Z,95548.97
2022-10-15T19:06:05.909Z,95551.50
2022-10-15T19:08:32.972Z,95553.44
2022-10-15T19:11:03.432Z,95556.25
2022-10-15T19:13:30.151Z,95566.19
2022-10-15T19:15:56.843Z,95566.78
2022-10-15T19:18:23.601Z,95569.16
2022-10-15T19:20:50.284Z,95566.03
2022-10-15T19:23:16.938Z,95568.53
2022-10-15T19:25:44.055Z,95572.72
2022-10-15T19:28:10.778Z,95572.31
2022-10-15T19:30:38.854Z,95569.06
2022-10-15T19:33:08.501Z,95566.41
2022-10-15T19:35:41.563Z,95567.59
2022-10-15T19:38:08.950Z,95575.50
2022-10-15T19:40:38.678Z,95574.97
2022-10-15T19:43:06.085Z,95571.22
2022-10-15T19:45:38.446Z,95569.50
2022-10-15T19:48:05.719Z,95579.09
2022-10-15T19:50:35.699Z,95582.94
2022-10-15T19:53:09.674Z,95589.34
2022-10-15T19:55:36.447Z,95597.03
2022-10-15T19:58:03.302Z,95592.94
2022-10-15T20:00:29.963Z,95591.88
2022-10-15T20:02:56.687Z,95591.94
2022-10-15T20:05:23.398Z,95595.09
2022-10-15T20:07:50.062Z,95591.97
2022-10-15T20:10:17.032Z,95590.78
2022-10-15T20:12:43.970Z,95591.75
2022-10-15T20:15:10.882Z,95600.88
2022-10-15T20:17:37.734Z,95570.72
2022-10-15T20:20:05.764Z,95581.97
2022-10-15T20:22:32.672Z,95587.31
2022-10-15T20:25:01.676Z,95580.78
2022-10-15T20:27:28.350Z,95582.13
2022-10-15T20:29:55.020Z,95588.53
2022-10-15T20:32:34.312Z,95590.44
2022-10-15T20:35:02.565Z,95587.47
2022-10-15T20:37:31.800Z,95593.34
2022-10-15T20:40:00.283Z,95598.25
2022-10-15T20:42:27.743Z,95609.78
2022-10-15T20:44:54.835Z,95604.91
2022-10-15T20:47:22.076Z,95604.91
2022-10-15T20:49:50.771Z,95606.53
2022-10-15T20:52:23.681Z,95610.63
2022-10-15T20:54:52.230Z,95610.63
2022-10-15T20:57:18.942Z,95611.56
2022-10-15T20:59:45.658Z,95605.16
2022-10-15T21:02:12.402Z,95611.47
2022-10-15T21:04:39.127Z,95620.41
2022-10-15T21:07:05.844Z,95626.66
2022-10-15T21:09:32.518Z,95626.81
2022-10-15T21:11:59.247Z,95622.84
2022-10-15T21:14:25.987Z,95628.28
2022-10-15T21:16:52.642Z,95639.97
2022-10-15T21:19:19.366Z,95633.28
2022-10-15T21:21:46.041Z,95634.41
2022-10-15T21:24:15.326Z,95637.63
2022-10-15T21:26:42.053Z,95637.50
2022-10-15T21:29:15.127Z,95633.72
2022-10-15T21:31:42.066Z,95645.13
2022-10-15T21:34:08.918Z,95644.91
2022-10-15T21:36:35.647Z,95639.44
2022-10-15T21:39:04.240Z,95642.72
2022-10-15T21:41:32.231Z,95646.78
2022-10-15T21:43:59.714Z,95648.28
2022-10-15T21:46:26.848Z,95650.88
2022-10-15T21:48:54.100Z,95652.78
2022-10-15T21:51:23.934Z,95659.78
2022-10-15T21:53:50.959Z,95658.16
2022-10-15T21:56:18.024Z,95652.59
2022-10-15T21:58:44.774Z,95663.19
2022-10-15T22:01:14.687Z,95661.81
2022-10-15T22:03:45.759Z,95674.19
2022-10-15T22:06:12.722Z,95666.81
2022-10-15T22:08:39.466Z,95663.03
2022-10-15T22:11:14.054Z,95664.94
2022-10-15T22:13:43.951Z,95671.97
2022-10-15T22:16:10.999Z,95668.59
2022-10-15T22:18:38.141Z,95668.72
2022-10-15T22:21:15.739Z,95672.13
2022-10-15T22:23:46.996Z,95671.44
2022-10-15T22:26:14.918Z,95675.91
2022-10-15T22:28:42.141Z,95671.69
2022-10-15T22:31:11.381Z,95666.78
2022-10-15T22:33:38.906Z,95663.56
2022-10-15T22:36:07.579Z,95669.78
2022-10-15T22:38:34.223Z,95675.06
2022-10-15T22:41:01.827Z,95670.84
2022-10-15T22:43:28.514Z,95679.66
2022-10-15T22:45:59.065Z,95672.19
2022-10-15T22:48:25.809Z,95679.13
2022-10-15T22:50:57.456Z,95681.94
2022-10-15T22:53:24.199Z,95684.41
2022-10-15T22:56:00.988Z,95684.28
2022-10-15T22:58:28.426Z,95678.03
2022-10-15T23:00:55.336Z,95683.31
2022-10-15T23:03:22.375Z,95683.31
2022-10-15T23:05:55.376Z,95683.44
2022-10-15T23:08:22.407Z,95691.31
2022-10-15T23:10:49.366Z,95688.34
2022-10-15T23:13:16.370Z,95691.44
2022-10-15T23:15:43.001Z,95694.50
2022-10-15T23:18:09.742Z,95693.13
2022-10-15T23:20:38.121Z,95697.63
2022-10-15T23:23:05.809Z,95700.59
2022-10-15T23:25:38.577Z,95699.34
2022-10-15T23:28:05.500Z,95710.59
2022-10-15T23:30:32.391Z,95704.50
2022-10-15T23:33:01.463Z,95702.16
2022-10-15T23:35:28.216Z,95702.41
2022-10-15T23:37:54.914Z,95693.88
2022-10-15T23:40:21.694Z,95695.91
2022-10-15T23:42:48.431Z,95696.84
2022-10-15T23:45:15.402Z,95706.59
2022-10-15T23:47:42.164Z,95697.72
2022-10-15T23:50:09.128Z,95699.47
2022-10-15T23:52:35.933Z,95706.28
2022-10-15T23:55:02.733Z,95712.50
2022-10-15T23:57:29.466Z,95707.63
2022-10-15T23:59:56.115Z,95716.28
